sensor_id;sensor_type;location;lat;lon;timestamp;pressure;altitude;pressure_sealevel;temperature;humidity
76260;BME280;65076;52.362;6.588;2023-05-16T00:00:00;101778.00;;;11.81;68.23
76260;BME280;65076;52.362;6.588;2023-05-16T00:02:33;101778.47;;;11.92;68.15
76260;BME280;65076;52.362;6.588;2023-05-16T00:05:01;101771.16;;;12.17;67.31
76260;BME280;65076;52.362;6.588;2023-05-16T00:07:33;101780.50;;;11.87;68.10
76260;BME280;65076;52.362;6.588;2023-05-16T00:10:01;101778.25;;;11.98;67.25
76260;BME280;65076;52.362;6.588;2023-05-16T00:12:29;101784.56;;;11.75;68.31
76260;BME280;65076;52.362;6.588;2023-05-16T00:14:58;101789.25;;;11.45;68.86
76260;BME280;65076;52.362;6.588;2023-05-16T00:17:26;101786.06;;;11.34;69.46
76260;BME280;65076;52.362;6.588;2023-05-16T00:19:56;101793.28;;;11.59;69.25
76260;BME280;65076;52.362;6.588;2023-05-16T00:22:25;101787.00;;;11.57;68.44
76260;BME280;65076;52.362;6.588;2023-05-16T00:24:53;101792.25;;;11.13;69.86
76260;BME280;65076;52.362;6.588;2023-05-16T00:27:21;101788.25;;;11.48;69.25
76260;BME280;65076;52.362;6.588;2023-05-16T00:29:49;101796.06;;;11.32;69.71
76260;BME280;65076;52.362;6.588;2023-05-16T00:32:17;101784.06;;;11.39;68.70
76260;BME280;65076;52.362;6.588;2023-05-16T00:34:45;101788.25;;;10.98;70.54
76260;BME280;65076;52.362;6.588;2023-05-16T00:37:14;101789.47;;;11.39;69.15
76260;BME280;65076;52.362;6.588;2023-05-16T00:39:42;101792.66;;;11.01;70.26
76260;BME280;65076;52.362;6.588;2023-05-16T00:42:10;101792.03;;;11.19;70.01
76260;BME280;65076;52.362;6.588;2023-05-16T00:44:38;101787.00;;;11.33;69.43
76260;BME280;65076;52.362;6.588;2023-05-16T00:47:06;101796.84;;;11.10;70.58
76260;BME280;65076;52.362;6.588;2023-05-16T00:49:34;101796.81;;;11.36;69.94
76260;BME280;65076;52.362;6.588;2023-05-16T00:52:03;101800.00;;;11.24;69.73
76260;BME280;65076;52.362;6.588;2023-05-16T00:54:33;101810.53;;;11.31;69.21
76260;BME280;65076;52.362;6.588;2023-05-16T00:57:01;101808.34;;;10.91;69.84
76260;BME280;65076;52.362;6.588;2023-05-16T00:59:31;101804.72;;;10.92;71.07
76260;BME280;65076;52.362;6.588;2023-05-16T01:02:00;101805.63;;;10.65;71.18
76260;BME280;65076;52.362;6.588;2023-05-16T01:04:29;101810.63;;;11.30;69.14
76260;BME280;65076;52.362;6.588;2023-05-16T01:06:59;101805.66;;;11.16;69.81
76260;BME280;65076;52.362;6.588;2023-05-16T01:09:27;101813.03;;;11.13;69.90
76260;BME280;65076;52.362;6.588;2023-05-16T01:12:01;101814.69;;;11.17;69.53
76260;BME280;65076;52.362;6.588;2023-05-16T01:14:45;101819.50;;;10.82;71.06
76260;BME280;65076;52.362;6.588;2023-05-16T01:17:22;101814.84;;;11.12;70.42
76260;BME280;65076;52.362;6.588;2023-05-16T01:20:02;101818.16;;;10.94;70.04
76260;BME280;65076;52.362;6.588;2023-05-16T01:22:51;101818.16;;;10.94;70.96
76260;BME280;65076;52.362;6.588;2023-05-16T01:25:38;101808.41;;;10.36;72.10
76260;BME280;65076;52.362;6.588;2023-05-16T01:28:22;101811.03;;;10.37;72.16
76260;BME280;65076;52.362;6.588;2023-05-16T01:30:51;101804.06;;;10.84;70.76
76260;BME280;65076;52.362;6.588;2023-05-16T01:33:18;101805.41;;;10.45;71.17
76260;BME280;65076;52.362;6.588;2023-05-16T01:35:54;101818.50;;;10.31;72.00
76260;BME280;65076;52.362;6.588;2023-05-16T01:38:32;101812.38;;;10.24;72.48
76260;BME280;65076;52.362;6.588;2023-05-16T01:41:13;101821.97;;;10.34;71.98
76260;BME280;65076;52.362;6.588;2023-05-16T01:43:50;101815.81;;;10.29;72.03
76260;BME280;65076;52.362;6.588;2023-05-16T01:46:24;101811.34;;;10.28;72.05
76260;BME280;65076;52.362;6.588;2023-05-16T01:49:02;101818.16;;;10.10;72.98
76260;BME280;65076;52.362;6.588;2023-05-16T01:51:37;101830.03;;;10.05;72.65
76260;BME280;65076;52.362;6.588;2023-05-16T01:54:11;101819.34;;;10.02;73.26
76260;BME280;65076;52.362;6.588;2023-05-16T01:56:43;101821.19;;;10.00;72.19
76260;BME280;65076;52.362;6.588;2023-05-16T01:59:19;101817.81;;;10.23;71.46
76260;BME280;65076;52.362;6.588;2023-05-16T02:01:48;101820.69;;;10.18;71.74
76260;BME280;65076;52.362;6.588;2023-05-16T02:04:16;101827.81;;;9.90;71.93
76260;BME280;65076;52.362;6.588;2023-05-16T02:06:45;101826.03;;;10.19;71.96
76260;BME280;65076;52.362;6.588;2023-05-16T02:09:13;101826.53;;;10.03;71.64
76260;BME280;65076;52.362;6.588;2023-05-16T02:11:41;101834.06;;;10.23;70.76
76260;BME280;65076;52.362;6.588;2023-05-16T02:14:09;101833.16;;;10.22;71.01
76260;BME280;65076;52.362;6.588;2023-05-16T02:16:38;101832.50;;;10.43;70.32
76260;BME280;65076;52.362;6.588;2023-05-16T02:19:06;101834.16;;;10.19;70.59
76260;BME280;65076;52.362;6.588;2023-05-16T02:21:34;101835.91;;;10.20;70.56
76260;BME280;65076;52.362;6.588;2023-05-16T02:24:02;101837.97;;;9.82;71.28
76260;BME280;65076;52.362;6.588;2023-05-16T02:26:31;101831.84;;;9.75;71.67
76260;BME280;65076;52.362;6.588;2023-05-16T02:28:59;101833.06;;;9.63;72.19
76260;BME280;65076;52.362;6.588;2023-05-16T02:31:28;101837.78;;;9.57;72.53
76260;BME280;65076;52.362;6.588;2023-05-16T02:33:59;101842.31;;;9.87;72.33
76260;BME280;65076;52.362;6.588;2023-05-16T02:36:28;101844.72;;;9.96;70.88
76260;BME280;65076;52.362;6.588;2023-05-16T02:38:57;101846.47;;;9.99;70.87
76260;BME280;65076;52.362;6.588;2023-05-16T02:41:25;101841.00;;;9.69;71.47
76260;BME280;65076;52.362;6.588;2023-05-16T02:43:53;101840.56;;;9.85;71.58
76260;BME280;65076;52.362;6.588;2023-05-16T02:46:25;101850.88;;;9.72;71.12
76260;BME280;65076;52.362;6.588;2023-05-16T02:48:54;101852.28;;;9.53;72.02
76260;BME280;65076;52.362;6.588;2023-05-16T02:51:25;101848.22;;;9.69;72.15
76260;BME280;65076;52.362;6.588;2023-05-16T02:53:54;101856.84;;;9.83;71.48
76260;BME280;65076;52.362;6.588;2023-05-16T02:56:25;101855.59;;;9.95;70.72
76260;BME280;65076;52.362;6.588;2023-05-16T02:58:54;101865.09;;;9.78;71.20
76260;BME280;65076;52.362;6.588;2023-05-16T03:01:22;101857.91;;;9.77;72.00
76260;BME280;65076;52.362;6.588;2023-05-16T03:03:50;101864.91;;;9.85;70.78
76260;BME280;65076;52.362;6.588;2023-05-16T03:06:18;101865.69;;;9.57;71.70
76260;BME280;65076;52.362;6.588;2023-05-16T03:08:48;101864.44;;;10.00;70.68
76260;BME280;65076;52.362;6.588;2023-05-16T03:11:16;101868.63;;;9.81;70.89
76260;BME280;65076;52.362;6.588;2023-05-16T03:13:46;101861.81;;;9.67;71.12
76260;BME280;65076;52.362;6.588;2023-05-16T03:16:14;101866.78;;;9.83;70.12
76260;BME280;65076;52.362;6.588;2023-05-16T03:18:42;101871.09;;;9.57;71.01
76260;BME280;65076;52.362;6.588;2023-05-16T03:21:10;101873.56;;;9.32;72.71
76260;BME280;65076;52.362;6.588;2023-05-16T03:23:38;101880.88;;;9.61;71.42
76260;BME280;65076;52.362;6.588;2023-05-16T03:26:08;101874.94;;;9.79;70.90
76260;BME280;65076;52.362;6.588;2023-05-16T03:28:36;101877.66;;;9.79;70.30
76260;BME280;65076;52.362;6.588;2023-05-16T03:31:04;101879.44;;;9.48;70.41
76260;BME280;65076;52.362;6.588;2023-05-16T03:33:32;101879.25;;;9.87;70.44
76260;BME280;65076;52.362;6.588;2023-05-16T03:36:00;101881.16;;;9.52;71.17
76260;BME280;65076;52.362;6.588;2023-05-16T03:38:28;101886.91;;;9.71;70.65
76260;BME280;65076;52.362;6.588;2023-05-16T03:40:56;101887.06;;;9.66;69.90
76260;BME280;65076;52.362;6.588;2023-05-16T03:43:25;101900.56;;;9.66;70.97
76260;BME280;65076;52.362;6.588;2023-05-16T03:45:53;101895.50;;;9.53;70.98
76260;BME280;65076;52.362;6.588;2023-05-16T03:48:21;101901.72;;;9.22;72.51
76260;BME280;65076;52.362;6.588;2023-05-16T03:50:49;101899.56;;;9.69;71.51
76260;BME280;65076;52.362;6.588;2023-05-16T03:53:17;101909.78;;;9.58;71.34
76260;BME280;65076;52.362;6.588;2023-05-16T03:55:46;101911.28;;;9.69;70.47
76260;BME280;65076;52.362;6.588;2023-05-16T03:58:14;101916.75;;;9.68;70.77
76260;BME280;65076;52.362;6.588;2023-05-16T04:00:44;101918.78;;;9.91;69.96
76260;BME280;65076;52.362;6.588;2023-05-16T04:03:12;101920.25;;;9.02;73.21
76260;BME280;65076;52.362;6.588;2023-05-16T04:05:40;101916.81;;;9.65;72.04
76260;BME280;65076;52.362;6.588;2023-05-16T04:08:08;101910.19;;;9.43;71.08
76260;BME280;65076;52.362;6.588;2023-05-16T04:10:36;101907.19;;;9.55;71.39
76260;BME280;65076;52.362;6.588;2023-05-16T04:13:04;101917.66;;;9.33;71.96
76260;BME280;65076;52.362;6.588;2023-05-16T04:15:32;101918.88;;;9.55;71.23
76260;BME280;65076;52.362;6.588;2023-05-16T04:18:01;101915.88;;;9.66;71.19
76260;BME280;65076;52.362;6.588;2023-05-16T04:20:30;101916.31;;;9.51;71.75
76260;BME280;65076;52.362;6.588;2023-05-16T04:22:58;101916.97;;;9.91;71.08
76260;BME280;65076;52.362;6.588;2023-05-16T04:25:26;101911.97;;;10.08;70.20
76260;BME280;65076;52.362;6.588;2023-05-16T04:27:54;101918.28;;;10.09;70.29
76260;BME280;65076;52.362;6.588;2023-05-16T04:30:22;101916.06;;;10.52;68.98
76260;BME280;65076;52.362;6.588;2023-05-16T04:32:50;101916.06;;;10.82;68.47
76260;BME280;65076;52.362;6.588;2023-05-16T04:35:19;101918.75;;;10.54;68.09
76260;BME280;65076;52.362;6.588;2023-05-16T04:37:48;101918.81;;;11.08;66.73
76260;BME280;65076;52.362;6.588;2023-05-16T04:40:16;101910.22;;;11.48;65.04
76260;BME280;65076;52.362;6.588;2023-05-16T04:42:44;101916.50;;;11.75;65.14
76260;BME280;65076;52.362;6.588;2023-05-16T04:45:12;101919.75;;;12.09;62.50
76260;BME280;65076;52.362;6.588;2023-05-16T04:47:40;101924.38;;;12.54;61.24
76260;BME280;65076;52.362;6.588;2023-05-16T04:50:09;101931.88;;;11.99;63.17
76260;BME280;65076;52.362;6.588;2023-05-16T04:52:38;101931.47;;;12.58;61.40
76260;BME280;65076;52.362;6.588;2023-05-16T04:55:07;101928.19;;;12.25;61.99
76260;BME280;65076;52.362;6.588;2023-05-16T04:57:36;101930.69;;;12.99;60.42
76260;BME280;65076;52.362;6.588;2023-05-16T05:00:06;101933.28;;;12.81;60.70
76260;BME280;65076;52.362;6.588;2023-05-16T05:02:35;101943.56;;;13.18;59.09
76260;BME280;65076;52.362;6.588;2023-05-16T05:05:05;101942.44;;;13.23;57.67
76260;BME280;65076;52.362;6.588;2023-05-16T05:07:34;101949.16;;;13.35;57.24
76260;BME280;65076;52.362;6.588;2023-05-16T05:10:04;101940.81;;;14.22;55.41
76260;BME280;65076;52.362;6.588;2023-05-16T05:12:33;101948.72;;;14.08;55.44
76260;BME280;65076;52.362;6.588;2023-05-16T05:15:01;101938.59;;;14.88;53.67
76260;BME280;65076;52.362;6.588;2023-05-16T05:17:30;101936.03;;;14.84;53.76
76260;BME280;65076;52.362;6.588;2023-05-16T05:19:58;101940.56;;;15.39;53.11
76260;BME280;65076;52.362;6.588;2023-05-16T05:22:28;101940.47;;;15.23;53.13
76260;BME280;65076;52.362;6.588;2023-05-16T05:24:56;101949.41;;;15.08;53.61
76260;BME280;65076;52.362;6.588;2023-05-16T05:27:25;101946.84;;;15.05;52.37
76260;BME280;65076;52.362;6.588;2023-05-16T05:29:54;101950.41;;;15.43;51.65
76260;BME280;65076;52.362;6.588;2023-05-16T05:32:22;101948.84;;;15.37;51.71
76260;BME280;65076;52.362;6.588;2023-05-16T05:34:50;101954.22;;;16.09;50.22
76260;BME280;65076;52.362;6.588;2023-05-16T05:37:19;101956.88;;;15.40;51.42
76260;BME280;65076;52.362;6.588;2023-05-16T05:39:47;101963.22;;;15.77;50.45
76260;BME280;65076;52.362;6.588;2023-05-16T05:42:15;101955.50;;;15.67;49.96
76260;BME280;65076;52.362;6.588;2023-05-16T05:44:45;101954.97;;;15.95;50.42
76260;BME280;65076;52.362;6.588;2023-05-16T05:47:14;101955.91;;;15.77;50.88
76260;BME280;65076;52.362;6.588;2023-05-16T05:49:42;101961.88;;;16.35;49.47
76260;BME280;65076;52.362;6.588;2023-05-16T05:52:10;101967.13;;;16.56;47.41
76260;BME280;65076;52.362;6.588;2023-05-16T05:54:38;101963.53;;;17.19;47.19
76260;BME280;65076;52.362;6.588;2023-05-16T05:57:06;101970.25;;;17.29;47.24
76260;BME280;65076;52.362;6.588;2023-05-16T05:59:34;101976.59;;;17.30;46.64
76260;BME280;65076;52.362;6.588;2023-05-16T06:02:03;101966.06;;;17.99;45.69
76260;BME280;65076;52.362;6.588;2023-05-16T06:04:31;101970.03;;;17.32;46.02
76260;BME280;65076;52.362;6.588;2023-05-16T06:07:00;101966.59;;;17.45;46.93
76260;BME280;65076;52.362;6.588;2023-05-16T06:09:28;101978.19;;;17.18;46.62
76260;BME280;65076;52.362;6.588;2023-05-16T06:11:56;101973.72;;;17.78;45.68
76260;BME280;65076;52.362;6.588;2023-05-16T06:14:24;101978.59;;;17.73;46.27
76260;BME280;65076;52.362;6.588;2023-05-16T06:16:52;101978.72;;;18.60;43.72
76260;BME280;65076;52.362;6.588;2023-05-16T06:19:21;101981.97;;;17.63;45.14
76260;BME280;65076;52.362;6.588;2023-05-16T06:21:49;101981.34;;;18.76;43.80
76260;BME280;65076;52.362;6.588;2023-05-16T06:24:17;101978.63;;;19.31;42.76
76260;BME280;65076;52.362;6.588;2023-05-16T06:26:47;101981.53;;;18.58;42.88
76260;BME280;65076;52.362;6.588;2023-05-16T06:29:16;101982.97;;;19.07;41.92
76260;BME280;65076;52.362;6.588;2023-05-16T06:31:44;101991.28;;;18.34;42.58
76260;BME280;65076;52.362;6.588;2023-05-16T06:34:13;101991.16;;;18.21;43.48
76260;BME280;65076;52.362;6.588;2023-05-16T06:36:42;101989.09;;;18.55;42.83
76260;BME280;65076;52.362;6.588;2023-05-16T06:39:10;101990.56;;;18.89;41.82
76260;BME280;65076;52.362;6.588;2023-05-16T06:41:38;101983.50;;;18.85;42.38
76260;BME280;65076;52.362;6.588;2023-05-16T06:44:13;102006.63;;;18.23;42.90
76260;BME280;65076;52.362;6.588;2023-05-16T06:46:41;101998.66;;;18.04;42.92
76260;BME280;65076;52.362;6.588;2023-05-16T06:49:09;102006.38;;;18.11;44.56
76260;BME280;65076;52.362;6.588;2023-05-16T06:51:37;102006.00;;;18.17;44.08
76260;BME280;65076;52.362;6.588;2023-05-16T06:54:07;101998.69;;;17.88;44.13
76260;BME280;65076;52.362;6.588;2023-05-16T06:56:35;102000.19;;;16.34;45.11
76260;BME280;65076;52.362;6.588;2023-05-16T06:59:02;101999.88;;;16.90;45.74
76260;BME280;65076;52.362;6.588;2023-05-16T07:01:30;102004.38;;;16.41;46.73
76260;BME280;65076;52.362;6.588;2023-05-16T07:03:58;102012.00;;;16.69;47.54
76260;BME280;65076;52.362;6.588;2023-05-16T07:06:26;101996.56;;;16.50;47.45
76260;BME280;65076;52.362;6.588;2023-05-16T07:08:54;101998.19;;;17.82;44.25
76260;BME280;65076;52.362;6.588;2023-05-16T07:11:24;101998.59;;;16.47;45.64
76260;BME280;65076;52.362;6.588;2023-05-16T07:13:52;102009.09;;;16.72;45.37
76260;BME280;65076;52.362;6.588;2023-05-16T07:16:20;102001.25;;;16.31;45.76
76260;BME280;65076;52.362;6.588;2023-05-16T07:18:48;102005.91;;;16.12;46.83
76260;BME280;65076;52.362;6.588;2023-05-16T07:21:16;102003.25;;;17.42;45.41
76260;BME280;65076;52.362;6.588;2023-05-16T07:23:44;101998.31;;;18.24;42.76
76260;BME280;65076;52.362;6.588;2023-05-16T07:26:12;102000.84;;;18.27;43.06
76260;BME280;65076;52.362;6.588;2023-05-16T07:28:41;101997.00;;;18.59;42.59
76260;BME280;65076;52.362;6.588;2023-05-16T07:31:09;102004.53;;;18.84;42.13
76260;BME280;65076;52.362;6.588;2023-05-16T07:33:38;102012.47;;;17.87;43.77
76260;BME280;65076;52.362;6.588;2023-05-16T07:36:07;102002.78;;;19.53;41.90
76260;BME280;65076;52.362;6.588;2023-05-16T07:38:43;102013.03;;;20.17;39.65
76260;BME280;65076;52.362;6.588;2023-05-16T07:41:11;102012.88;;;20.83;38.81
76260;BME280;65076;52.362;6.588;2023-05-16T07:43:40;102013.88;;;19.37;39.97
76260;BME280;65076;52.362;6.588;2023-05-16T07:46:09;102009.00;;;19.28;41.28
76260;BME280;65076;52.362;6.588;2023-05-16T07:48:37;102011.13;;;18.68;41.86
76260;BME280;65076;52.362;6.588;2023-05-16T07:51:05;102016.66;;;18.08;41.71
76260;BME280;65076;52.362;6.588;2023-05-16T07:53:33;102017.25;;;16.89;44.66
76260;BME280;65076;52.362;6.588;2023-05-16T07:56:01;102020.13;;;16.86;45.37
76260;BME280;65076;52.362;6.588;2023-05-16T07:58:30;102009.47;;;16.97;45.54
76260;BME280;65076;52.362;6.588;2023-05-16T08:00:59;102016.97;;;16.43;47.17
76260;BME280;65076;52.362;6.588;2023-05-16T08:03:27;102017.44;;;17.17;45.54
76260;BME280;65076;52.362;6.588;2023-05-16T08:05:55;102008.00;;;17.70;43.38
76260;BME280;65076;52.362;6.588;2023-05-16T08:08:24;102004.81;;;18.07;41.55
76260;BME280;65076;52.362;6.588;2023-05-16T08:10:52;102003.38;;;19.02;39.46
76260;BME280;65076;52.362;6.588;2023-05-16T08:13:20;102011.81;;;18.99;38.79
76260;BME280;65076;52.362;6.588;2023-05-16T08:15:48;102008.28;;;18.69;38.72
76260;BME280;65076;52.362;6.588;2023-05-16T08:18:17;102013.03;;;19.36;38.24
76260;BME280;65076;52.362;6.588;2023-05-16T08:20:48;102012.72;;;19.95;35.72
76260;BME280;65076;52.362;6.588;2023-05-16T08:23:16;102013.88;;;20.82;34.24
76260;BME280;65076;52.362;6.588;2023-05-16T08:25:45;102011.34;;;20.02;35.40
76260;BME280;65076;52.362;6.588;2023-05-16T08:28:16;102008.72;;;20.65;35.06
76260;BME280;65076;52.362;6.588;2023-05-16T08:30:43;102000.09;;;21.07;33.64
76260;BME280;65076;52.362;6.588;2023-05-16T08:33:13;102010.81;;;20.61;33.56
76260;BME280;65076;52.362;6.588;2023-05-16T08:35:43;102006.94;;;21.75;31.89
76260;BME280;65076;52.362;6.588;2023-05-16T08:38:11;102000.09;;;21.80;32.31
76260;BME280;65076;52.362;6.588;2023-05-16T08:40:39;101998.16;;;21.70;32.44
76260;BME280;65076;52.362;6.588;2023-05-16T08:43:09;101993.44;;;21.83;30.73
76260;BME280;65076;52.362;6.588;2023-05-16T08:45:39;101996.34;;;21.08;31.52
76260;BME280;65076;52.362;6.588;2023-05-16T08:48:08;101989.75;;;22.19;31.46
76260;BME280;65076;52.362;6.588;2023-05-16T08:50:37;101999.97;;;21.09;32.04
76260;BME280;65076;52.362;6.588;2023-05-16T08:53:11;101994.06;;;20.64;33.19
76260;BME280;65076;52.362;6.588;2023-05-16T08:55:44;102001.69;;;21.72;33.01
76260;BME280;65076;52.362;6.588;2023-05-16T08:58:16;102006.72;;;20.80;33.88
76260;BME280;65076;52.362;6.588;2023-05-16T09:00:45;102032.25;;;19.36;42.84
76260;BME280;65076;52.362;6.588;2023-05-16T09:03:14;102035.63;;;18.41;46.05
76260;BME280;65076;52.362;6.588;2023-05-16T09:05:46;102028.28;;;17.82;49.00
76260;BME280;65076;52.362;6.588;2023-05-16T09:08:16;102038.38;;;17.65;50.35
76260;BME280;65076;52.362;6.588;2023-05-16T09:10:45;102038.09;;;16.57;52.66
76260;BME280;65076;52.362;6.588;2023-05-16T09:13:13;102040.47;;;16.30;55.18
76260;BME280;65076;52.362;6.588;2023-05-16T09:15:41;102038.69;;;16.29;54.65
76260;BME280;65076;52.362;6.588;2023-05-16T09:18:11;102036.94;;;16.11;55.86
76260;BME280;65076;52.362;6.588;2023-05-16T09:20:42;102025.66;;;18.40;53.67
76260;BME280;65076;52.362;6.588;2023-05-16T09:23:13;102017.97;;;18.75;51.65
76260;BME280;65076;52.362;6.588;2023-05-16T09:25:42;102011.84;;;19.40;51.61
76260;BME280;65076;52.362;6.588;2023-05-16T09:28:12;102007.59;;;19.08;45.31
76260;BME280;65076;52.362;6.588;2023-05-16T09:30:45;101996.63;;;20.15;43.54
76260;BME280;65076;52.362;6.588;2023-05-16T09:33:14;102002.97;;;20.43;41.32
76260;BME280;65076;52.362;6.588;2023-05-16T09:35:42;101989.88;;;20.97;39.94
76260;BME280;65076;52.362;6.588;2023-05-16T09:38:16;101994.78;;;21.77;36.82
76260;BME280;65076;52.362;6.588;2023-05-16T09:40:46;101991.94;;;21.55;37.94
76260;BME280;65076;52.362;6.588;2023-05-16T09:43:14;101997.00;;;21.12;36.80
76260;BME280;65076;52.362;6.588;2023-05-16T09:45:45;102011.63;;;20.24;38.86
76260;BME280;65076;52.362;6.588;2023-05-16T09:48:15;102009.03;;;20.35;36.87
76260;BME280;65076;52.362;6.588;2023-05-16T09:50:48;102023.06;;;18.95;38.36
76260;BME280;65076;52.362;6.588;2023-05-16T09:53:24;102024.75;;;17.32;41.17
76260;BME280;65076;52.362;6.588;2023-05-16T09:56:03;102029.47;;;17.77;41.33
76260;BME280;65076;52.362;6.588;2023-05-16T09:58:34;102033.34;;;17.58;41.40
76260;BME280;65076;52.362;6.588;2023-05-16T10:01:04;102030.00;;;17.37;40.53
76260;BME280;65076;52.362;6.588;2023-05-16T10:03:33;102031.75;;;17.38;40.01
76260;BME280;65076;52.362;6.588;2023-05-16T10:06:04;102034.31;;;17.41;39.67
76260;BME280;65076;52.362;6.588;2023-05-16T10:08:34;102033.38;;;18.03;39.01
76260;BME280;65076;52.362;6.588;2023-05-16T10:11:05;102028.31;;;18.41;36.75
76260;BME280;65076;52.362;6.588;2023-05-16T10:13:35;102026.75;;;19.36;36.29
76260;BME280;65076;52.362;6.588;2023-05-16T10:16:05;102030.13;;;20.35;33.93
76260;BME280;65076;52.362;6.588;2023-05-16T10:18:35;102021.75;;;21.12;32.50
76260;BME280;65076;52.362;6.588;2023-05-16T10:21:07;102023.38;;;21.76;31.91
76260;BME280;65076;52.362;6.588;2023-05-16T10:23:41;102016.38;;;21.83;33.07
76260;BME280;65076;52.362;6.588;2023-05-16T10:26:13;102013.50;;;21.85;31.86
76260;BME280;65076;52.362;6.588;2023-05-16T10:28:44;102008.25;;;22.63;29.62
76260;BME280;65076;52.362;6.588;2023-05-16T10:31:12;102016.41;;;22.53;31.57
76260;BME280;65076;52.362;6.588;2023-05-16T10:33:41;102006.38;;;22.63;29.75
76260;BME280;65076;52.362;6.588;2023-05-16T10:36:09;101996.13;;;22.19;30.00
76260;BME280;65076;52.362;6.588;2023-05-16T10:38:38;102010.94;;;22.18;31.69
76260;BME280;65076;52.362;6.588;2023-05-16T10:41:08;102003.91;;;21.67;31.95
76260;BME280;65076;52.362;6.588;2023-05-16T10:43:38;102008.66;;;21.16;31.11
76260;BME280;65076;52.362;6.588;2023-05-16T10:46:09;102004.69;;;22.96;30.85
76260;BME280;65076;52.362;6.588;2023-05-16T10:48:39;101992.78;;;22.95;29.96
76260;BME280;65076;52.362;6.588;2023-05-16T10:51:32;101994.19;;;22.44;31.48
76260;BME280;65076;52.362;6.588;2023-05-16T10:54:07;101994.59;;;22.50;32.40
76260;BME280;65076;52.362;6.588;2023-05-16T10:56:36;101985.38;;;22.96;31.39
76260;BME280;65076;52.362;6.588;2023-05-16T10:59:21;101978.69;;;23.09;28.71
76260;BME280;65076;52.362;6.588;2023-05-16T11:01:54;101978.63;;;23.97;29.34
76260;BME280;65076;52.362;6.588;2023-05-16T11:04:23;101995.34;;;22.63;29.29
76260;BME280;65076;52.362;6.588;2023-05-16T11:07:17;102003.75;;;21.44;31.00
76260;BME280;65076;52.362;6.588;2023-05-16T11:09:52;102009.38;;;20.04;33.58
76260;BME280;65076;52.362;6.588;2023-05-16T11:12:41;102010.03;;;19.68;34.75
76260;BME280;65076;52.362;6.588;2023-05-16T11:15:20;102022.31;;;18.93;35.82
76260;BME280;65076;52.362;6.588;2023-05-16T11:18:02;102013.91;;;17.78;38.06
76260;BME280;65076;52.362;6.588;2023-05-16T11:20:33;102012.31;;;18.92;37.38
76260;BME280;65076;52.362;6.588;2023-05-16T11:23:30;102007.25;;;20.34;35.36
76260;BME280;65076;52.362;6.588;2023-05-16T11:25:58;102002.66;;;20.73;35.74
76260;BME280;65076;52.362;6.588;2023-05-16T11:28:26;101987.59;;;21.64;32.41
76260;BME280;65076;52.362;6.588;2023-05-16T11:30:58;102001.66;;;22.30;32.61
76260;BME280;65076;52.362;6.588;2023-05-16T11:33:26;101988.25;;;22.26;32.32
76260;BME280;65076;52.362;6.588;2023-05-16T11:36:02;101978.50;;;21.50;32.25
76260;BME280;65076;52.362;6.588;2023-05-16T11:38:34;101986.97;;;21.24;33.04
76260;BME280;65076;52.362;6.588;2023-05-16T11:41:03;101993.84;;;20.67;34.27
76260;BME280;65076;52.362;6.588;2023-05-16T11:43:40;102009.44;;;18.79;37.35
76260;BME280;65076;52.362;6.588;2023-05-16T11:46:13;102011.63;;;19.43;37.06
76260;BME280;65076;52.362;6.588;2023-05-16T11:48:42;102002.69;;;20.20;36.90
76260;BME280;65076;52.362;6.588;2023-05-16T11:51:11;102007.50;;;20.82;34.91
76260;BME280;65076;52.362;6.588;2023-05-16T11:53:40;102005.38;;;19.95;35.43
76260;BME280;65076;52.362;6.588;2023-05-16T11:56:08;102018.16;;;19.14;37.28
76260;BME280;65076;52.362;6.588;2023-05-16T11:58:36;102014.38;;;19.43;36.79
76260;BME280;65076;52.362;6.588;2023-05-16T12:01:05;102019.25;;;18.55;37.06
76260;BME280;65076;52.362;6.588;2023-05-16T12:03:34;102018.97;;;18.88;35.81
76260;BME280;65076;52.362;6.588;2023-05-16T12:06:05;102022.22;;;18.94;36.61
76260;BME280;65076;52.362;6.588;2023-05-16T12:08:33;102018.53;;;19.36;35.87
76260;BME280;65076;52.362;6.588;2023-05-16T12:11:01;102007.97;;;19.84;35.74
76260;BME280;65076;52.362;6.588;2023-05-16T12:13:29;101998.91;;;20.73;33.97
76260;BME280;65076;52.362;6.588;2023-05-16T12:15:57;102004.38;;;21.24;33.26
76260;BME280;65076;52.362;6.588;2023-05-16T12:18:26;102001.38;;;21.64;32.40
76260;BME280;65076;52.362;6.588;2023-05-16T12:20:55;102003.97;;;20.54;33.60
76260;BME280;65076;52.362;6.588;2023-05-16T12:23:25;102005.16;;;20.38;33.29
76260;BME280;65076;52.362;6.588;2023-05-16T12:25:54;102006.13;;;20.24;34.92
76260;BME280;65076;52.362;6.588;2023-05-16T12:28:23;102019.09;;;19.82;35.76
76260;BME280;65076;52.362;6.588;2023-05-16T12:30:51;102015.94;;;19.48;37.00
76260;BME280;65076;52.362;6.588;2023-05-16T12:33:19;102032.53;;;18.17;39.04
76260;BME280;65076;52.362;6.588;2023-05-16T12:35:47;102048.97;;;17.71;41.42
76260;BME280;65076;52.362;6.588;2023-05-16T12:38:29;102059.28;;;17.19;43.78
76260;BME280;65076;52.362;6.588;2023-05-16T12:40:58;102068.81;;;16.79;45.47
76260;BME280;65076;52.362;6.588;2023-05-16T12:43:25;102062.16;;;17.01;45.02
76260;BME280;65076;52.362;6.588;2023-05-16T12:45:56;102069.72;;;16.80;45.86
76260;BME280;65076;52.362;6.588;2023-05-16T12:48:31;102066.22;;;16.76;46.24
76260;BME280;65076;52.362;6.588;2023-05-16T12:51:09;102068.38;;;16.87;45.34
76260;BME280;65076;52.362;6.588;2023-05-16T12:53:44;102068.38;;;17.20;44.67
76260;BME280;65076;52.362;6.588;2023-05-16T12:56:33;102073.28;;;16.80;44.54
76260;BME280;65076;52.362;6.588;2023-05-16T12:59:01;102067.59;;;16.85;44.63
76260;BME280;65076;52.362;6.588;2023-05-16T13:01:29;102065.72;;;17.50;43.64
76260;BME280;65076;52.362;6.588;2023-05-16T13:03:58;102069.78;;;18.05;43.21
76260;BME280;65076;52.362;6.588;2023-05-16T13:06:26;102065.78;;;18.71;41.39